createdAt,value
2022-11-03T00:00:30.331Z,1011.35
2022-11-03T00:01:30.256Z,1011.34
2022-11-03T00:02:30.412Z,1011.32
2022-11-03T00:03:30.295Z,1011.32
2022-11-03T00:04:30.091Z,1011.33
2022-11-03T00:05:30.173Z,1011.35
2022-11-03T00:06:30.451Z,1011.35
2022-11-03T00:07:30.811Z,1011.35
2022-11-03T00:08:30.072Z,1011.36
2022-11-03T00:09:30.304Z,1011.37
2022-11-03T00:10:30.132Z,1011.37
2022-11-03T00:11:30.112Z,1011.35
2022-11-03T00:12:30.027Z,1011.36
2022-11-03T00:13:30.012Z,1011.34
2022-11-03T00:14:29.972Z,1011.34
2022-11-03T00:15:30.896Z,1011.34
2022-11-03T00:16:30.050Z,1011.35
2022-11-03T00:17:30.006Z,1011.32
2022-11-03T00:18:29.939Z,1011.30
2022-11-03T00:19:30.041Z,1011.30
2022-11-03T00:20:29.917Z,1011.27
2022-11-03T00:21:30.052Z,1011.28
2022-11-03T00:22:29.956Z,1011.28
2022-11-03T00:23:29.961Z,1011.26
2022-11-03T00:24:30.056Z,1011.27
2022-11-03T00:25:29.876Z,1011.26
2022-11-03T00:26:29.796Z,1011.27
2022-11-03T00:27:29.857Z,1011.29
2022-11-03T00:28:29.888Z,1011.29
2022-11-03T00:29:30.019Z,1011.29
2022-11-03T00:30:39.065Z,1011.27
2022-11-03T00:31:30.053Z,1011.24
2022-11-03T00:32:29.782Z,1011.25
2022-11-03T00:33:30.591Z,1011.23
2022-11-03T00:34:45.565Z,1011.24
2022-11-03T00:35:29.814Z,1011.23
2022-11-03T00:36:29.808Z,1011.21
2022-11-03T00:37:29.686Z,1011.20
2022-11-03T00:38:29.856Z,1011.19
2022-11-03T00:39:29.667Z,1011.13
2022-11-03T00:40:29.638Z,1011.13
2022-11-03T00:41:29.738Z,1011.12
2022-11-03T00:42:29.691Z,1011.12
2022-11-03T00:43:29.651Z,1011.10
2022-11-03T00:44:29.601Z,1011.12
2022-11-03T00:45:29.622Z,1011.11
2022-11-03T00:46:29.663Z,1011.11
2022-11-03T00:47:29.572Z,1011.11
2022-11-03T00:48:29.561Z,1011.12
2022-11-03T00:49:29.583Z,1011.09
2022-11-03T00:50:29.567Z,1011.08
2022-11-03T00:51:29.511Z,1011.05
2022-11-03T00:52:29.630Z,1011.08
2022-11-03T00:53:29.476Z,1011.08
2022-11-03T00:54:29.532Z,1011.06
2022-11-03T00:55:29.557Z,1011.03
2022-11-03T00:56:29.464Z,1011.03
2022-11-03T00:57:29.560Z,1011.01
2022-11-03T00:58:29.471Z,1010.99
2022-11-03T00:59:30.374Z,1010.98
2022-11-03T01:00:29.550Z,1010.98
2022-11-03T01:01:29.616Z,1010.97
2022-11-03T01:02:29.558Z,1010.95
2022-11-03T01:03:29.506Z,1010.94
2022-11-03T01:04:29.383Z,1010.92
2022-11-03T01:05:29.396Z,1010.93
2022-11-03T01:06:29.446Z,1010.95
2022-11-03T01:07:29.407Z,1010.97
2022-11-03T01:08:29.354Z,1010.96
2022-11-03T01:09:29.321Z,1010.96
2022-11-03T01:10:29.384Z,1010.95
2022-11-03T01:11:29.379Z,1010.95
2022-11-03T01:12:29.331Z,1010.95
2022-11-03T01:13:29.277Z,1010.96
2022-11-03T01:14:29.396Z,1010.94
2022-11-03T01:15:29.332Z,1010.92
2022-11-03T01:16:29.289Z,1010.92
2022-11-03T01:17:29.305Z,1010.92
2022-11-03T01:18:29.345Z,1010.90
2022-11-03T01:19:29.252Z,1010.88
2022-11-03T01:20:29.318Z,1010.87
2022-11-03T01:21:29.225Z,1010.84
2022-11-03T01:22:29.304Z,1010.83
2022-11-03T01:23:29.232Z,1010.81
2022-11-03T01:24:29.201Z,1010.81
2022-11-03T01:25:29.236Z,1010.81
2022-11-03T01:26:29.216Z,1010.79
2022-11-03T01:27:29.240Z,1010.77
2022-11-03T01:28:29.197Z,1010.77
2022-11-03T01:29:29.269Z,1010.76
2022-11-03T01:30:29.105Z,1010.74
2022-11-03T01:31:29.156Z,1010.70
2022-11-03T01:32:29.119Z,1010.72
2022-11-03T01:33:29.144Z,1010.67
2022-11-03T01:34:29.152Z,1010.69
2022-11-03T01:35:29.104Z,1010.66
2022-11-03T01:36:29.136Z,1010.63
2022-11-03T01:37:29.145Z,1010.57
2022-11-03T01:38:29.093Z,1010.57
2022-11-03T01:39:29.428Z,1010.53
2022-11-03T01:40:29.114Z,1010.53
2022-11-03T01:41:29.098Z,1010.51
2022-11-03T01:42:29.076Z,1010.49
2022-11-03T01:43:29.195Z,1010.45
2022-11-03T01:44:29.026Z,1010.42
2022-11-03T01:45:28.989Z,1010.41
2022-11-03T01:46:29.033Z,1010.35
2022-11-03T01:47:29.085Z,1010.36
2022-11-03T01:48:28.980Z,1010.32
2022-11-03T01:49:28.986Z,1010.31
2022-11-03T01:50:28.926Z,1010.31
2022-11-03T01:51:28.877Z,1010.28
2022-11-03T01:52:28.858Z,1010.26
2022-11-03T01:53:29.066Z,1010.25
2022-11-03T01:54:28.983Z,1010.24
2022-11-03T01:55:28.876Z,1010.23
2022-11-03T01:56:28.906Z,1010.19
2022-11-03T01:57:28.892Z,1010.19
2022-11-03T01:58:28.953Z,1010.17
2022-11-03T01:59:28.856Z,1010.15
2022-11-03T02:00:29.022Z,1010.13
2022-11-03T02:01:28.911Z,1010.13
2022-11-03T02:02:28.873Z,1010.10
2022-11-03T02:03:28.825Z,1010.08
2022-11-03T02:04:28.852Z,1010.07
2022-11-03T02:05:28.726Z,1010.05
2022-11-03T02:06:28.798Z,1010.05
2022-11-03T02:07:28.761Z,1010.02
2022-11-03T02:08:28.750Z,1009.97
2022-11-03T02:09:28.699Z,1009.94
2022-11-03T02:10:28.718Z,1009.92
2022-11-03T02:11:28.726Z,1009.95
2022-11-03T02:12:28.666Z,1009.92
2022-11-03T02:13:28.630Z,1009.94
2022-11-03T02:14:28.686Z,1009.92
2022-11-03T02:15:28.664Z,1009.92
2022-11-03T02:16:28.670Z,1009.91
2022-11-03T02:17:28.672Z,1009.88
2022-11-03T02:18:28.657Z,1009.89
2022-11-03T02:19:28.611Z,1009.87
2022-11-03T02:20:28.614Z,1009.87
2022-11-03T02:21:28.564Z,1009.86
2022-11-03T02:22:28.601Z,1009.85
2022-11-03T02:23:28.596Z,1009.85
2022-11-03T02:24:28.559Z,1009.82
2022-11-03T02:25:28.587Z,1009.84
2022-11-03T02:26:28.600Z,1009.85
2022-11-03T02:27:28.521Z,1009.81
2022-11-03T02:28:28.531Z,1009.79
2022-11-03T02:29:28.507Z,1009.80
2022-11-03T02:30:28.557Z,1009.76
2022-11-03T02:31:28.480Z,1009.73
2022-11-03T02:32:28.458Z,1009.70
2022-11-03T02:33:28.477Z,1009.72
2022-11-03T02:34:28.438Z,1009.72
2022-11-03T02:35:28.453Z,1009.68
2022-11-03T02:36:28.419Z,1009.64
2022-11-03T02:37:28.464Z,1009.64
2022-11-03T02:38:28.398Z,1009.62
2022-11-03T02:39:28.361Z,1009.58
2022-11-03T02:40:28.400Z,1009.58
2022-11-03T02:41:28.342Z,1009.57
2022-11-03T02:42:28.438Z,1009.55
2022-11-03T02:43:28.341Z,1009.53
2022-11-03T02:44:28.377Z,1009.51
2022-11-03T02:45:28.339Z,1009.50
2022-11-03T02:46:28.336Z,1009.48
2022-11-03T02:47:28.309Z,1009.46
2022-11-03T02:48:28.349Z,1009.45
2022-11-03T02:49:28.374Z,1009.45
2022-11-03T02:50:28.272Z,1009.43
2022-11-03T02:51:28.348Z,1009.42
2022-11-03T02:52:28.274Z,1009.41
2022-11-03T02:53:28.310Z,1009.39
2022-11-03T02:54:28.295Z,1009.36
2022-11-03T02:55:28.212Z,1009.37
2022-11-03T02:56:28.257Z,1009.32
2022-11-03T02:57:28.226Z,1009.32
2022-11-03T02:58:28.280Z,1009.28
2022-11-03T02:59:28.263Z,1009.25
2022-11-03T03:00:28.209Z,1009.22
2022-11-03T03:01:28.364Z,1009.22
2022-11-03T03:02:28.159Z,1009.22
2022-11-03T03:03:28.218Z,1009.22
2022-11-03T03:04:28.131Z,1009.21
2022-11-03T03:05:28.161Z,1009.21
2022-11-03T03:06:28.168Z,1009.17
2022-11-03T03:07:28.108Z,1009.17
2022-11-03T03:08:28.093Z,1009.17
2022-11-03T03:09:28.045Z,1009.18
2022-11-03T03:10:28.107Z,1009.16
2022-11-03T03:11:28.094Z,1009.16
2022-11-03T03:12:28.076Z,1009.18
2022-11-03T03:13:28.002Z,1009.17
2022-11-03T03:14:28.012Z,1009.19
2022-11-03T03:15:28.017Z,1009.20
2022-11-03T03:16:28.045Z,1009.15
2022-11-03T03:17:28.061Z,1009.17
2022-11-03T03:18:27.990Z,1009.14
2022-11-03T03:19:28.010Z,1009.13
2022-11-03T03:20:27.984Z,1009.13
2022-11-03T03:21:27.924Z,1009.12
2022-11-03T03:22:27.965Z,1009.10
2022-11-03T03:23:28.030Z,1009.11
2022-11-03T03:24:27.937Z,1009.09
2022-11-03T03:25:27.926Z,1009.07
2022-11-03T03:26:27.930Z,1009.06
2022-11-03T03:27:27.886Z,1009.05
2022-11-03T03:28:27.914Z,1009.04
2022-11-03T03:29:27.903Z,1009.06
2022-11-03T03:30:27.846Z,1009.05
2022-11-03T03:31:27.888Z,1009.07
2022-11-03T03:32:27.961Z,1009.05
2022-11-03T03:34:36.352Z,1009.02
2022-11-03T03:35:27.855Z,1009.00
2022-11-03T03:36:27.830Z,1008.98
2022-11-03T03:37:27.797Z,1008.96
2022-11-03T03:38:27.836Z,1008.94
2022-11-03T03:39:27.870Z,1008.97
2022-11-03T03:40:27.746Z,1008.97
2022-11-03T03:41:27.746Z,1008.96
2022-11-03T03:42:27.791Z,1008.94
2022-11-03T03:43:27.792Z,1008.91
2022-11-03T03:44:27.748Z,1008.89
2022-11-03T03:45:27.694Z,1008.85
2022-11-03T03:46:27.735Z,1008.84
2022-11-03T03:47:27.651Z,1008.83
2022-11-03T03:48:27.677Z,1008.82
2022-11-03T03:49:27.662Z,1008.81
2022-11-03T03:50:27.618Z,1008.81
2022-11-03T03:51:27.682Z,1008.81
2022-11-03T03:52:27.673Z,1008.79
2022-11-03T03:53:27.604Z,1008.81
2022-11-03T03:54:27.587Z,1008.78
2022-11-03T03:55:27.632Z,1008.78
2022-11-03T03:56:27.570Z,1008.77
2022-11-03T03:57:27.597Z,1008.75
2022-11-03T03:58:27.558Z,1008.76
2022-11-03T03:59:27.671Z,1008.74
2022-11-03T04:00:27.581Z,1008.73
2022-11-03T04:01:27.715Z,1008.73
2022-11-03T04:02:27.622Z,1008.71
2022-11-03T04:03:27.516Z,1008.69
2022-11-03T04:04:27.513Z,1008.66
2022-11-03T04:05:27.518Z,1008.67
2022-11-03T04:06:27.487Z,1008.65
2022-11-03T04:07:27.462Z,1008.63
2022-11-03T04:08:27.514Z,1008.62
2022-11-03T04:09:27.408Z,1008.62
2022-11-03T04:10:27.428Z,1008.58
2022-11-03T04:11:27.440Z,1008.60
2022-11-03T04:12:27.501Z,1008.61
2022-11-03T04:13:27.476Z,1008.59
2022-11-03T04:14:27.343Z,1008.61
2022-11-03T04:15:27.456Z,1008.61
2022-11-03T04:16:27.361Z,1008.56
2022-11-03T04:17:27.349Z,1008.57
2022-11-03T04:18:27.357Z,1008.57
2022-11-03T04:19:27.301Z,1008.58
2022-11-03T04:20:27.337Z,1008.57
2022-11-03T04:21:27.273Z,1008.56
2022-11-03T04:22:27.275Z,1008.54
2022-11-03T04:23:27.307Z,1008.57
2022-11-03T04:24:27.304Z,1008.54
2022-11-03T04:25:27.315Z,1008.53
2022-11-03T04:26:27.244Z,1008.52
2022-11-03T04:27:27.305Z,1008.51
2022-11-03T04:28:27.355Z,1008.52
2022-11-03T04:29:27.218Z,1008.51
2022-11-03T04:30:27.222Z,1008.51
2022-11-03T04:31:27.241Z,1008.51
2022-11-03T04:32:27.215Z,1008.49
2022-11-03T04:33:27.203Z,1008.49
2022-11-03T04:34:27.222Z,1008.46
2022-11-03T04:35:27.199Z,1008.43
2022-11-03T04:36:27.116Z,1008.41
2022-11-03T04:37:27.121Z,1008.43
2022-11-03T04:38:27.195Z,1008.40
2022-11-03T04:39:27.127Z,1008.40
2022-11-03T04:40:27.106Z,1008.35
2022-11-03T04:41:27.133Z,1008.34
2022-11-03T04:42:27.052Z,1008.32
2022-11-03T04:43:27.108Z,1008.31
2022-11-03T04:44:27.087Z,1008.28
2022-11-03T04:45:27.066Z,1008.27
2022-11-03T04:46:27.047Z,1008.26
2022-11-03T04:47:27.066Z,1008.25
2022-11-03T04:48:27.052Z,1008.26
2022-11-03T04:49:27.019Z,1008.23
2022-11-03T04:50:27.066Z,1008.25
2022-11-03T04:51:27.086Z,1008.27
2022-11-03T04:52:26.997Z,1008.25
2022-11-03T04:53:26.973Z,1008.25
2022-11-03T04:54:26.986Z,1008.22
2022-11-03T04:55:27.015Z,1008.21
2022-11-03T04:56:26.921Z,1008.20
2022-11-03T04:57:26.940Z,1008.17
2022-11-03T04:58:27.014Z,1008.16
2022-11-03T04:59:26.896Z,1008.13
2022-11-03T05:00:26.946Z,1008.14
2022-11-03T05:01:26.979Z,1008.15
2022-11-03T05:02:26.886Z,1008.14
2022-11-03T05:03:26.852Z,1008.15
2022-11-03T05:04:26.911Z,1008.12
2022-11-03T05:05:26.854Z,1008.13
2022-11-03T05:06:26.863Z,1008.11
2022-11-03T05:07:26.844Z,1008.10
2022-11-03T05:08:26.798Z,1008.08
2022-11-03T05:09:26.805Z,1008.06
2022-11-03T05:10:26.949Z,1008.07
2022-11-03T05:11:26.764Z,1008.05
2022-11-03T05:12:26.774Z,1008.03
2022-11-03T05:13:26.785Z,1008.03
2022-11-03T05:14:26.804Z,1008.04
2022-11-03T05:15:26.770Z,1007.99
2022-11-03T05:16:26.688Z,1008.01
2022-11-03T05:17:26.708Z,1008.00
2022-11-03T05:18:26.722Z,1007.99
2022-11-03T05:19:26.764Z,1007.96
2022-11-03T05:20:28.165Z,1007.92
2022-11-03T05:21:26.724Z,1007.89
2022-11-03T05:22:26.637Z,1007.90
2022-11-03T05:23:26.730Z,1007.88
2022-11-03T05:24:26.615Z,1007.85
2022-11-03T05:25:26.636Z,1007.84
2022-11-03T05:26:26.622Z,1007.80
2022-11-03T05:27:26.683Z,1007.80
2022-11-03T05:28:26.627Z,1007.77
2022-11-03T05:29:26.661Z,1007.77
2022-11-03T05:30:26.567Z,1007.78
2022-11-03T05:31:26.560Z,1007.77
2022-11-03T05:32:26.540Z,1007.79
2022-11-03T05:33:26.541Z,1007.75
2022-11-03T05:34:26.604Z,1007.76
2022-11-03T05:35:26.556Z,1007.77
2022-11-03T05:36:26.756Z,1007.75
2022-11-03T05:37:27.423Z,1007.76
2022-11-03T05:38:26.537Z,1007.75
2022-11-03T05:39:26.510Z,1007.70
2022-11-03T05:40:37.764Z,1007.67
2022-11-03T05:41:26.424Z,1007.64
2022-11-03T05:42:26.421Z,1007.63
2022-11-03T05:43:26.417Z,1007.62
2022-11-03T05:44:26.375Z,1007.59
2022-11-03T05:45:26.397Z,1007.60
2022-11-03T05:46:26.369Z,1007.58
2022-11-03T05:47:26.525Z,1007.56
2022-11-03T05:48:26.356Z,1007.52
2022-11-03T05:49:26.393Z,1007.54
2022-11-03T05:50:26.555Z,1007.53
2022-11-03T05:51:26.349Z,1007.52
2022-11-03T05:52:26.295Z,1007.53
2022-11-03T05:53:26.266Z,1007.51
2022-11-03T05:54:26.298Z,1007.50
2022-11-03T05:55:26.282Z,1007.52
2022-11-03T05:56:26.280Z,1007.52
2022-11-03T05:57:26.284Z,1007.50
2022-11-03T05:58:26.202Z,1007.49
2022-11-03T05:59:26.918Z,1007.48
2022-11-03T06:00:26.468Z,1007.47
2022-11-03T06:01:26.399Z,1007.47
2022-11-03T06:02:26.166Z,1007.46
2022-11-03T06:03:26.171Z,1007.42
2022-11-03T06:04:26.110Z,1007.38
2022-11-03T06:05:26.137Z,1007.38
2022-11-03T06:06:31.026Z,1007.36
2022-11-03T06:07:26.116Z,1007.36
2022-11-03T06:08:26.200Z,1007.32
2022-11-03T06:09:26.115Z,1007.34
2022-11-03T06:10:26.077Z,1007.33
2022-11-03T06:11:26.076Z,1007.35
2022-11-03T06:12:26.042Z,1007.36
2022-11-03T06:13:26.783Z,1007.38
2022-11-03T06:14:26.021Z,1007.33
2022-11-03T06:15:26.012Z,1007.34
2022-11-03T06:16:26.006Z,1007.31
2022-11-03T06:17:26.012Z,1007.31
2022-11-03T06:18:25.981Z,1007.30
2022-11-03T06:19:26.017Z,1007.29
2022-11-03T06:20:26.239Z,1007.30
2022-11-03T06:21:25.991Z,1007.28
2022-11-03T06:22:26.018Z,1007.27
2022-11-03T06:23:26.041Z,1007.27
2022-11-03T06:24:26.648Z,1007.29
2022-11-03T06:25:29.428Z,1007.29
2022-11-03T06:26:25.888Z,1007.30
2022-11-03T06:27:25.920Z,1007.29
2022-11-03T06:28:25.892Z,1007.29
2022-11-03T06:29:25.890Z,1007.28
2022-11-03T06:30:25.892Z,1007.26
2022-11-03T06:31:25.832Z,1007.24
2022-11-03T06:32:25.846Z,1007.24
2022-11-03T06:33:25.875Z,1007.23
2022-11-03T06:34:25.831Z,1007.19
2022-11-03T06:35:25.796Z,1007.17
2022-11-03T06:36:25.846Z,1007.15
2022-11-03T06:37:25.775Z,1007.13
2022-11-03T06:38:25.774Z,1007.12
2022-11-03T06:39:25.745Z,1007.10
2022-11-03T06:40:25.737Z,1007.11
2022-11-03T06:41:25.753Z,1007.07
2022-11-03T06:42:31.649Z,1007.09
2022-11-03T06:43:25.724Z,1007.08
2022-11-03T06:44:25.704Z,1007.09
2022-11-03T06:45:25.704Z,1007.09
2022-11-03T06:46:25.681Z,1007.09
2022-11-03T06:47:25.669Z,1007.12
2022-11-03T06:48:25.675Z,1007.12
2022-11-03T06:49:25.655Z,1007.10
2022-11-03T06:50:25.634Z,1007.09
2022-11-03T06:51:25.622Z,1007.07
2022-11-03T06:52:25.667Z,1007.05
2022-11-03T06:53:25.620Z,1007.02
2022-11-03T06:54:25.591Z,1006.98
2022-11-03T06:55:25.618Z,1006.95
2022-11-03T06:56:25.585Z,1006.93
2022-11-03T06:57:25.588Z,1006.91
2022-11-03T06:58:25.567Z,1006.93
2022-11-03T06:59:25.703Z,1006.92
2022-11-03T07:00:33.965Z,1006.92
2022-11-03T07:01:25.666Z,1006.92
2022-11-03T07:02:25.584Z,1006.91
2022-11-03T07:03:25.517Z,1006.88
2022-11-03T07:04:25.533Z,1006.88
2022-11-03T07:05:25.543Z,1006.91
2022-11-03T07:06:25.476Z,1006.87
2022-11-03T07:07:25.458Z,1006.86
2022-11-03T07:08:25.452Z,1006.82
2022-11-03T07:09:25.435Z,1006.80
2022-11-03T07:10:25.442Z,1006.77
2022-11-03T07:11:25.406Z,1006.74
2022-11-03T07:12:25.436Z,1006.74
2022-11-03T07:13:25.392Z,1006.76
2022-11-03T07:14:25.397Z,1006.75
2022-11-03T07:15:25.424Z,1006.73
2022-11-03T07:16:25.365Z,1006.71
2022-11-03T07:17:25.356Z,1006.66
2022-11-03T07:18:25.391Z,1006.64
2022-11-03T07:19:25.590Z,1006.61
2022-11-03T07:20:25.302Z,1006.59
2022-11-03T07:21:25.312Z,1006.60
2022-11-03T07:22:25.307Z,1006.61
2022-11-03T07:23:25.306Z,1006.60
2022-11-03T07:24:25.298Z,1006.58
2022-11-03T07:25:25.260Z,1006.57
2022-11-03T07:26:25.267Z,1006.58
2022-11-03T07:27:25.266Z,1006.60
2022-11-03T07:28:25.278Z,1006.60
2022-11-03T07:29:25.237Z,1006.56
2022-11-03T07:30:25.206Z,1006.53
2022-11-03T07:31:25.212Z,1006.51
2022-11-03T07:32:25.229Z,1006.53
2022-11-03T07:33:25.191Z,1006.53
2022-11-03T07:34:25.153Z,1006.53
2022-11-03T07:35:25.183Z,1006.53
2022-11-03T07:36:25.142Z,1006.52
2022-11-03T07:37:25.129Z,1006.50
2022-11-03T07:38:25.158Z,1006.50
2022-11-03T07:39:25.116Z,1006.48
2022-11-03T07:40:25.100Z,1006.46
2022-11-03T07:41:28.202Z,1006.45
2022-11-03T07:42:25.113Z,1006.48
2022-11-03T07:43:25.081Z,1006.45
2022-11-03T07:44:25.097Z,1006.45
2022-11-03T07:45:25.072Z,1006.45
2022-11-03T07:46:25.045Z,1006.41
2022-11-03T07:47:25.046Z,1006.40
2022-11-03T07:48:25.025Z,1006.41
2022-11-03T07:49:25.653Z,1006.38
2022-11-03T07:50:24.996Z,1006.36
2022-11-03T07:51:25.029Z,1006.35
2022-11-03T07:52:24.988Z,1006.34
2022-11-03T07:53:26.216Z,1006.31
2022-11-03T07:54:24.978Z,1006.30
2022-11-03T07:55:24.950Z,1006.31
2022-11-03T07:56:25.035Z,1006.28
2022-11-03T07:57:24.975Z,1006.28
2022-11-03T07:58:24.900Z,1006.30
2022-11-03T08:00:24.892Z,1006.28
2022-11-03T08:01:25.069Z,1006.27
2022-11-03T08:02:24.967Z,1006.26
2022-11-03T08:03:24.874Z,1006.25
2022-11-03T08:04:24.884Z,1006.26
2022-11-03T08:05:24.858Z,1006.30
2022-11-03T08:06:24.846Z,1006.29
2022-11-03T08:07:24.818Z,1006.30
2022-11-03T08:08:25.128Z,1006.27
2022-11-03T08:09:24.789Z,1006.27
2022-11-03T08:10:24.818Z,1006.26
2022-11-03T08:11:27.998Z,1006.22
2022-11-03T08:12:24.790Z,1006.22
2022-11-03T08:13:24.753Z,1006.20
2022-11-03T08:14:24.747Z,1006.16
2022-11-03T08:15:24.740Z,1006.17
2022-11-03T08:16:24.766Z,1006.16
2022-11-03T08:17:24.720Z,1006.15
2022-11-03T08:18:24.710Z,1006.12
2022-11-03T08:19:24.686Z,1006.12
2022-11-03T08:20:24.692Z,1006.13
2022-11-03T08:21:24.680Z,1006.09
2022-11-03T08:22:24.674Z,1006.06
2022-11-03T08:23:26.367Z,1006.06
2022-11-03T08:24:24.671Z,1006.04
2022-11-03T08:25:24.674Z,1006.01
2022-11-03T08:26:24.656Z,1005.95
2022-11-03T08:27:24.618Z,1005.92
2022-11-03T08:28:24.599Z,1005.94
2022-11-03T08:29:24.587Z,1005.92
2022-11-03T08:30:24.619Z,1005.94
2022-11-03T08:31:24.582Z,1005.93
2022-11-03T08:32:24.562Z,1005.92
2022-11-03T08:33:24.602Z,1005.92
2022-11-03T08:34:24.586Z,1005.91
2022-11-03T08:35:26.638Z,1005.91
2022-11-03T08:36:24.521Z,1005.89
2022-11-03T08:37:24.513Z,1005.88
2022-11-03T08:38:24.495Z,1005.87
2022-11-03T08:39:24.482Z,1005.86
2022-11-03T08:40:24.529Z,1005.85
2022-11-03T08:41:24.520Z,1005.86
2022-11-03T08:42:24.446Z,1005.87
2022-11-03T08:43:24.502Z,1005.84
2022-11-03T08:44:24.444Z,1005.80
2022-11-03T08:45:24.440Z,1005.81
2022-11-03T08:46:24.402Z,1005.79
2022-11-03T08:47:24.428Z,1005.80
2022-11-03T08:48:24.459Z,1005.77
2022-11-03T08:49:24.402Z,1005.76
2022-11-03T08:50:24.511Z,1005.76
2022-11-03T08:51:24.350Z,1005.75
2022-11-03T08:52:24.474Z,1005.73
2022-11-03T08:53:24.355Z,1005.72
2022-11-03T08:54:24.359Z,1005.74
2022-11-03T08:55:24.313Z,1005.71
2022-11-03T08:56:24.433Z,1005.70
2022-11-03T08:57:24.309Z,1005.66
2022-11-03T08:58:24.317Z,1005.64
2022-11-03T08:59:24.315Z,1005.63
2022-11-03T09:00:24.446Z,1005.64
2022-11-03T09:01:24.310Z,1005.61
2022-11-03T09:02:24.250Z,1005.61
2022-11-03T09:03:24.296Z,1005.65
2022-11-03T09:04:24.229Z,1005.61
2022-11-03T09:05:24.264Z,1005.59
2022-11-03T09:06:24.314Z,1005.58
2022-11-03T09:07:24.300Z,1005.55
2022-11-03T09:10:28.380Z,1005.49
2022-11-03T09:11:24.168Z,1005.45
2022-11-03T09:12:24.150Z,1005.47
2022-11-03T09:13:24.117Z,1005.47
2022-11-03T09:14:24.136Z,1005.45
2022-11-03T09:15:24.143Z,1005.43
2022-11-03T09:16:24.226Z,1005.37
2022-11-03T09:17:24.115Z,1005.35
2022-11-03T09:18:24.082Z,1005.33
2022-11-03T09:19:24.073Z,1005.30
2022-11-03T09:20:24.055Z,1005.27
2022-11-03T09:21:24.055Z,1005.27
2022-11-03T09:22:24.031Z,1005.26
2022-11-03T09:23:24.047Z,1005.23
2022-11-03T09:24:24.037Z,1005.24
2022-11-03T09:25:24.018Z,1005.20
2022-11-03T09:26:24.411Z,1005.19
2022-11-03T09:27:23.972Z,1005.16
2022-11-03T09:28:23.981Z,1005.15
2022-11-03T09:29:23.952Z,1005.10
2022-11-03T09:30:23.955Z,1005.06
2022-11-03T09:31:23.983Z,1005.02
2022-11-03T09:32:23.956Z,1005.00
2022-11-03T09:33:23.915Z,1004.95
2022-11-03T09:34:23.914Z,1004.95
2022-11-03T09:35:23.880Z,1004.95
2022-11-03T09:36:23.928Z,1004.91
2022-11-03T09:37:23.945Z,1004.87
2022-11-03T09:38:23.858Z,1004.85
2022-11-03T09:39:23.825Z,1004.87
2022-11-03T09:40:23.835Z,1004.85
2022-11-03T09:41:28.115Z,1004.85
2022-11-03T09:42:23.839Z,1004.85
2022-11-03T09:43:23.863Z,1004.82
2022-11-03T09:44:23.810Z,1004.81
2022-11-03T09:45:23.788Z,1004.82
2022-11-03T09:46:23.796Z,1004.76
2022-11-03T09:47:23.774Z,1004.76
2022-11-03T09:48:23.776Z,1004.70
2022-11-03T09:49:23.755Z,1004.72
2022-11-03T09:50:23.749Z,1004.66
2022-11-03T09:51:23.702Z,1004.62
2022-11-03T09:52:23.707Z,1004.64
2022-11-03T09:53:23.725Z,1004.57
2022-11-03T09:54:23.704Z,1004.56
2022-11-03T09:55:23.794Z,1004.53
2022-11-03T09:56:23.678Z,1004.48
2022-11-03T09:57:23.681Z,1004.51
2022-11-03T09:58:23.706Z,1004.47
2022-11-03T09:59:23.704Z,1004.49
2022-11-03T10:00:23.628Z,1004.50
2022-11-03T10:01:23.840Z,1004.43
2022-11-03T10:02:23.660Z,1004.43
2022-11-03T10:03:23.595Z,1004.44
2022-11-03T10:04:23.586Z,1004.38
2022-11-03T10:05:23.615Z,1004.34
2022-11-03T10:06:23.564Z,1004.36
2022-11-03T10:07:23.547Z,1004.31
2022-11-03T10:08:23.568Z,1004.27
2022-11-03T10:09:23.533Z,1004.31
2022-11-03T10:10:23.567Z,1004.30
2022-11-03T10:11:23.510Z,1004.22
2022-11-03T10:12:23.591Z,1004.19
2022-11-03T10:13:23.485Z,1004.17
2022-11-03T10:14:23.494Z,1004.13
2022-11-03T10:15:23.483Z,1004.06
2022-11-03T10:16:23.527Z,1004.08
2022-11-03T10:17:23.435Z,1004.05
2022-11-03T10:18:23.441Z,1004.00
2022-11-03T10:19:23.429Z,1003.98
2022-11-03T10:20:23.423Z,1003.95
2022-11-03T10:21:23.440Z,1003.95
2022-11-03T10:22:23.405Z,1003.98
2022-11-03T10:23:23.410Z,1003.99
2022-11-03T10:24:23.420Z,1003.96
2022-11-03T10:25:23.344Z,1003.96
2022-11-03T10:26:23.383Z,1003.96
2022-11-03T10:27:23.377Z,1003.97
2022-11-03T10:28:23.319Z,1003.93
2022-11-03T10:29:23.352Z,1003.91
2022-11-03T10:30:23.318Z,1003.92
2022-11-03T10:31:23.316Z,1003.94
2022-11-03T10:32:23.298Z,1003.90
2022-11-03T10:33:23.281Z,1003.87
2022-11-03T10:34:23.255Z,1003.82
2022-11-03T10:35:23.254Z,1003.81
2022-11-03T10:36:23.252Z,1003.70
2022-11-03T10:37:23.230Z,1003.65
2022-11-03T10:38:23.217Z,1003.62
2022-11-03T10:39:23.197Z,1003.55
2022-11-03T10:40:46.722Z,1003.48
2022-11-03T10:41:23.203Z,1003.46
2022-11-03T10:42:23.209Z,1003.43
2022-11-03T10:43:23.178Z,1003.37
2022-11-03T10:44:23.335Z,1003.32
2022-11-03T10:45:23.196Z,1003.27
2022-11-03T10:46:44.572Z,1003.25
2022-11-03T10:47:23.167Z,1003.21
2022-11-03T10:48:23.117Z,1003.14
2022-11-03T10:49:23.139Z,1003.12
2022-11-03T10:50:23.183Z,1003.11
2022-11-03T10:51:23.865Z,1003.13
2022-11-03T10:52:23.202Z,1003.18
2022-11-03T10:53:23.142Z,1003.20
2022-11-03T10:54:23.320Z,1003.22
2022-11-03T10:55:25.178Z,1003.23
2022-11-03T10:56:23.019Z,1003.21
2022-11-03T10:57:23.322Z,1003.24
2022-11-03T10:58:23.017Z,1003.18
2022-11-03T10:59:23.011Z,1003.21
2022-11-03T11:00:23.017Z,1003.16
2022-11-03T11:01:23.095Z,1003.19
2022-11-03T11:02:23.119Z,1003.20
2022-11-03T11:03:22.979Z,1003.20
2022-11-03T11:04:23.073Z,1003.21
2022-11-03T11:05:23.185Z,1003.25
2022-11-03T11:06:22.929Z,1003.20
2022-11-03T11:07:22.907Z,1003.17
2022-11-03T11:08:24.070Z,1003.10
2022-11-03T11:09:22.928Z,1003.06
2022-11-03T11:10:22.909Z,1003.00
2022-11-03T11:11:22.872Z,1002.99
2022-11-03T11:12:22.892Z,1002.99
2022-11-03T11:13:22.888Z,1002.96
2022-11-03T11:14:22.850Z,1002.97
2022-11-03T11:15:22.871Z,1002.94
2022-11-03T11:16:22.868Z,1002.90
2022-11-03T11:17:22.872Z,1002.89
2022-11-03T11:18:22.817Z,1002.84
2022-11-03T11:19:22.772Z,1002.84
2022-11-03T11:20:22.813Z,1002.75
2022-11-03T11:21:22.789Z,1002.69
2022-11-03T11:22:22.770Z,1002.63
2022-11-03T11:23:22.783Z,1002.54
2022-11-03T11:24:22.746Z,1002.45
2022-11-03T11:25:22.716Z,1002.44
2022-11-03T11:26:22.752Z,1002.45
2022-11-03T11:27:22.711Z,1002.45
2022-11-03T11:28:22.686Z,1002.41
2022-11-03T11:29:22.650Z,1002.37
2022-11-03T11:30:22.720Z,1002.36
2022-11-03T11:31:22.669Z,1002.35
2022-11-03T11:32:22.642Z,1002.41
2022-11-03T11:33:22.619Z,1002.40
2022-11-03T11:34:22.639Z,1002.43
2022-11-03T11:35:22.840Z,1002.47
2022-11-03T11:36:22.596Z,1002.49
2022-11-03T11:37:22.644Z,1002.49
2022-11-03T11:38:23.292Z,1002.50
2022-11-03T11:39:22.564Z,1002.45
2022-11-03T11:40:22.564Z,1002.35
2022-11-03T11:41:22.536Z,1002.34
2022-11-03T11:42:22.595Z,1002.34
2022-11-03T11:43:22.519Z,1002.32
2022-11-03T11:44:22.516Z,1002.19
2022-11-03T11:45:22.554Z,1002.22
2022-11-03T11:46:22.482Z,1002.21
2022-11-03T11:47:22.530Z,1002.26
2022-11-03T11:48:22.478Z,1002.22
2022-11-03T11:49:22.465Z,1002.18
2022-11-03T11:50:22.449Z,1002.13
2022-11-03T11:51:22.440Z,1002.12
2022-11-03T11:52:22.427Z,1002.12
2022-11-03T11:53:26.115Z,1002.10
2022-11-03T11:54:22.462Z,1002.08
2022-11-03T11:55:22.398Z,1002.08
2022-11-03T11:56:22.642Z,1002.07
2022-11-03T11:57:22.379Z,1002.04
2022-11-03T11:58:22.400Z,1002.01
2022-11-03T11:59:25.189Z,1002.04
2022-11-03T12:00:22.613Z,1002.07
2022-11-03T12:01:22.361Z,1002.06
2022-11-03T12:02:22.392Z,1002.05
2022-11-03T12:03:22.452Z,1002.01
2022-11-03T12:04:22.328Z,1001.96
2022-11-03T12:05:22.545Z,1001.93
2022-11-03T12:06:22.544Z,1001.90
2022-11-03T12:07:22.285Z,1001.92
2022-11-03T12:08:22.362Z,1001.84
2022-11-03T12:09:22.254Z,1001.80